This is the latest recevied weather packets stored in our database for station/object K6JWN. If no packets are shown the sender has not sent any weather packets the latest 10 day(s).
| Time | Temp. | Humidity | Pressure | Rain* | Wind** | Luminosity | Snow |
|---|---|---|---|---|---|---|---|
| 1778210357 | 21.11° C | 56% | 1014.1 hPa | 0 mm | - | - | - |
| 1778209758 | 21.67° C | 56% | 1014.1 hPa | 0 mm | - | - | - |
| 1778209158 | 22.22° C | 54% | 1013.9 hPa | 0 mm | - | - | - |
| 1778208557 | 22.78° C | 53% | 1013.9 hPa | 0 mm | - | - | - |
| 1778207957 | 23.33° C | 54% | 1013.8 hPa | 0 mm | - | - | - |
| 1778207358 | 24.44° C | 53% | 1013.8 hPa | 0 mm | - | - | - |
| 1778206757 | 25.56° C | 50% | 1013.6 hPa | 0 mm | - | - | - |
| 1778206157 | 26.11° C | 47% | 1013.6 hPa | 0 mm | - | - | - |
| 1778205557 | 26.67° C | 46% | 1013.6 hPa | 0 mm | - | - | - |
| 1778204958 | 27.22° C | 45% | 1013.6 hPa | 0 mm | - | - | - |
| 1778204357 | 27.22° C | 46% | 1013.7 hPa | 0 mm | - | - | - |
| 1778203758 | 27.78° C | 44% | 1013.6 hPa | 0 mm | - | - | - |
| 1778203157 | 27.78° C | 45% | 1013.7 hPa | 0 mm | - | - | - |
| 1778202558 | 28.33° C | 43% | 1013.8 hPa | 0 mm | - | - | - |
| 1778201958 | 28.33° C | 42% | 1013.8 hPa | 0 mm | - | - | - |
| 1778201357 | 28.33° C | 43% | 1013.7 hPa | 0 mm | - | - | - |
| 1778200757 | 28.89° C | 41% | 1013.8 hPa | 0 mm | - | - | - |
| 1778200157 | 28.89° C | 42% | 1013.9 hPa | 0 mm | - | - | - |
| 1778199557 | 28.89° C | 39% | 1014 hPa | 0 mm | - | - | - |
| 1778198957 | 28.89° C | 38% | 1014 hPa | 0 mm | - | - | - |
| 1778198357 | 28.33° C | 42% | 1014 hPa | 0 mm | - | - | - |
| 1778197757 | 28.33° C | 41% | 1014 hPa | 0 mm | - | - | - |
| 1778197158 | 28.33° C | 41% | 1014 hPa | 0 mm | - | - | - |
| 1778196558 | 28.33° C | 40% | 1014.1 hPa | 0 mm | - | - | - |
| 1778195957 | 28.33° C | 40% | 1014.2 hPa | 0 mm | - | - | - |
* Rain latest hour (hover to see other rain measurements)
** Current wind speed in m/s (hover to see current wind gust speed)